Flight Track Log - Related Links

Times and Time Zones

All times are in EDT time to prevent confusion due to time zone crossing. See the N8147X flight status page for this flight to view local times or setup timezone preferences in your user account.

Time Position Orientation Groundspeed Altitude Reporting Facility
EDT Latitude Longitude Course Direction KTS MPH feet Rate Location/Type
Tue 05:10:00 PM 39.2211 -80.3194 233° Southwest 80 92 3,800  Level Indianapolis Center
Tue 05:11:02 PM 39.2047 -80.3475 233° Southwest 94 108 4,300 435 Climbing Indianapolis Center
Tue 05:12:04 PM 39.1906 -80.3753 237° Southwest 94 108 4,700 484 Climbing Indianapolis Center
Tue 05:13:06 PM 39.1728 -80.4100 237° Southwest 95 109 5,300 484 Climbing Indianapolis Center
Tue 05:14:08 PM 39.1564 -80.4383 233° Southwest 97 112 5,700 387 Climbing Indianapolis Center
Tue 05:15:10 PM 39.1403 -80.4675 235° Southwest 99 114 6,100 341 Climbing Indianapolis Center
Tue 05:16:11 PM 39.1236 -80.4958 233° Southwest 99 114 6,400 341 Climbing Indianapolis Center
Tue 05:17:13 PM 39.1069 -80.5250 234° Southwest 100 115 6,800 387 Climbing Indianapolis Center
Tue 05:18:15 PM 39.0908 -80.5550 235° Southwest 100 115 7,200 339 Climbing Indianapolis Center
Tue 05:19:17 PM 39.0733 -80.5833 232° Southwest 101 116 7,500 339 Climbing Indianapolis Center
Tue 05:20:19 PM 39.0531 -80.6183 233° Southwest 101 116 7,900 242 Climbing Indianapolis Center
Tue 05:21:21 PM 39.0358 -80.6486 234° Southwest 103 119 8,000 48 Climbing Indianapolis Center
Tue 05:22:23 PM 39.0150 -80.6869 235° Southwest 122 140 8,000  Level Indianapolis Center
Tue 05:23:25 PM 38.9928 -80.7264 234° Southwest 132 152 8,000  Level Indianapolis Center
Tue 05:24:26 PM 38.9706 -80.7633 232° Southwest 132 152 8,000 49 Level Indianapolis Center
Tue 05:25:28 PM 38.9494 -80.7992 233° Southwest 128 147 8,100 48 Climbing Indianapolis Center
Tue 05:26:30 PM 38.9283 -80.8364 234° Southwest 128 147 8,100 48 Level Indianapolis Center
Tue 05:27:33 PM 38.9028 -80.8831 235° Southwest 130 150 8,200 -48 Climbing Indianapolis Center
Tue 05:28:34 PM 38.8806 -80.9206 233° Southwest 132 152 8,000 -49 Descending Indianapolis Center
Tue 05:29:36 PM 38.8575 -80.9581 232° Southwest 133 153 8,100 48 Climbing Indianapolis Center
Tue 05:30:38 PM 38.8356 -80.9978 235° Southwest 135 155 8,100  Level Indianapolis Center
Tue 05:31:40 PM 38.8111 -81.0356 230° Southwest 136 157 8,100 -49 Level Indianapolis Center
Tue 05:32:41 PM 38.7878 -81.0744 232° Southwest 137 158 8,000 -49 Descending Indianapolis Center
Tue 05:33:43 PM 38.7639 -81.1119 231° Southwest 136 157 8,000  Level Indianapolis Center
Tue 05:34:45 PM 38.7361 -81.1569 232° Southwest 133 153 8,000  Level Indianapolis Center
Tue 05:35:47 PM 38.7122 -81.1947 231° Southwest 135 155 8,000  Level Indianapolis Center
Tue 05:36:49 PM 38.6892 -81.2328 232° Southwest 135 155 8,000  Level Indianapolis Center
Tue 05:37:51 PM 38.6653 -81.2700 231° Southwest 135 155 8,000 48 Level Indianapolis Center
Tue 05:38:53 PM 38.6422 -81.3072 232° Southwest 132 152 8,100  Climbing Indianapolis Center
Tue 05:39:55 PM 38.6186 -81.3439 231° Southwest 133 153 8,000 -48 Descending Indianapolis Center
Tue 05:40:57 PM 38.5953 -81.3825 232° Southwest 136 157 8,000  Level Indianapolis Center
Tue 05:41:59 PM 38.5714 -81.4200 231° Southwest 135 155 8,000  Level Indianapolis Center
Tue 05:43:01 PM 38.5478 -81.4578 231° Southwest 135 155 8,000 -48 Level Indianapolis Center
Tue 05:44:03 PM 38.5183 -81.5025 230° Southwest 136 157 7,900 -48 Descending Indianapolis Center
Tue 05:45:05 PM 38.4953 -81.5403 232° Southwest 135 155 7,900  Level Indianapolis Center
Tue 05:46:07 PM 38.4711 -81.5775 230° Southwest 134 154 7,900 48 Level Indianapolis Center
Tue 05:47:09 PM 38.4492 -81.6128 232° Southwest 128 147 8,000 97 Climbing Indianapolis Center
Tue 05:48:11 PM 38.4253 -81.6497 230° Southwest 133 153 8,100 49 Climbing Indianapolis Center
Tue 05:49:12 PM 38.4022 -81.6864 231° Southwest 133 153 8,100  Level Indianapolis Center
Tue 05:50:14 PM 38.3786 -81.7228 230° Southwest 132 152 8,100  Level Indianapolis Center
Tue 05:51:16 PM 38.3506 -81.7672 231° Southwest 134 154 8,100  Level Indianapolis Center
Tue 05:52:18 PM 38.3272 -81.8056 232° Southwest 135 155 8,100 -48 Level Indianapolis Center
Tue 05:53:20 PM 38.3033 -81.8425 231° Southwest 135 155 8,000 -48 Descending Indianapolis Center
Tue 05:54:22 PM 38.2800 -81.8789 231° Southwest 133 153 8,000  Level Indianapolis Center
Tue 05:55:24 PM 38.2569 -81.9158 232° Southwest 133 153 8,000  Level Indianapolis Center
Tue 05:56:26 PM 38.2333 -81.9536 231° Southwest 135 155 8,000  Level Indianapolis Center
Tue 05:57:28 PM 38.2106 -81.9906 232° Southwest 133 153 8,000  Level Indianapolis Center
Tue 05:58:30 PM 38.1822 -82.0339 230° Southwest 133 153 8,000  Level Indianapolis Center
Tue 05:59:32 PM 38.1597 -82.0697 231° Southwest 130 150 8,000  Level Indianapolis Center
Tue 06:00:34 PM 38.1369 -82.1042 230° Southwest 128 147 8,000  Level Indianapolis Center
Tue 06:01:36 PM 38.1153 -82.1406 233° Southwest 128 147 8,000  Level Indianapolis Center
Tue 06:02:38 PM 38.0903 -82.1789 230° Southwest 129 148 8,000  Level Indianapolis Center
Tue 06:03:40 PM 38.0675 -82.2136 230° Southwest 128 147 8,000 48 Level Indianapolis Center
Tue 06:04:42 PM 38.0453 -82.2475 230° Southwest 126 145 8,100  Climbing Indianapolis Center
Tue 06:05:44 PM 38.0236 -82.2839 233° Southwest 128 147 8,000  Descending Indianapolis Center
Tue 06:06:46 PM 37.9969 -82.3261 231° Southwest 130 150 8,100  Climbing Indianapolis Center
Tue 06:07:48 PM 37.9744 -82.3597 230° Southwest 127 146 8,000  Descending Indianapolis Center
Tue 06:08:50 PM 37.9517 -82.3947 230° Southwest 127 146 8,100 97 Climbing Indianapolis Center
Tue 06:09:52 PM 37.9297 -82.4300 232° Southwest 127 146 8,200 49 Climbing Indianapolis Center
Tue 06:10:53 PM 37.9075 -82.4642 231° Southwest 126 145 8,200  Level Indianapolis Center
Tue 06:11:55 PM 37.8856 -82.4986 231° Southwest 125 144 8,200  Level Indianapolis Center
Tue 06:12:57 PM 37.8594 -82.5386 230° Southwest 125 144 8,200 -48 Level Indianapolis Center
Tue 06:13:59 PM 37.8369 -82.5728 230° Southwest 126 145 8,100 -48 Descending Indianapolis Center
Tue 06:15:01 PM 37.8153 -82.6086 233° Southwest 127 146 8,100  Level Indianapolis Center
Tue 06:16:03 PM 37.7928 -82.6425 230° Southwest 126 145 8,100  Level Indianapolis Center
Tue 06:17:05 PM 37.7703 -82.6781 231° Southwest 128 147 8,100  Level Indianapolis Center
Tue 06:18:07 PM 37.7478 -82.7106 229° Southwest 125 144 8,100  Level Indianapolis Center
Tue 06:19:08 PM 37.7233 -82.7525 234° Southwest 126 145 8,100  Level Indianapolis Center
Tue 06:20:10 PM 37.6992 -82.7861 228° Southwest 128 147 8,100  Level Indianapolis Center
Tue 06:21:12 PM 37.6781 -82.8206 232° Southwest 125 144 8,100  Level Indianapolis Center
Tue 06:22:14 PM 37.6556 -82.8544 230° Southwest 125 144 8,100  Level Indianapolis Center
Tue 06:23:16 PM 37.6331 -82.8883 230° Southwest 126 145 8,100  Level Indianapolis Center
Tue 06:24:18 PM 37.6114 -82.9242 233° Southwest 128 147 8,100  Level Indianapolis Center
Tue 06:25:20 PM 37.5844 -82.9639 229° Southwest 128 147 8,100  Level Indianapolis Center
Tue 06:26:22 PM 37.5631 -82.9986 232° Southwest 126 145 8,100  Level Indianapolis Center
Tue 06:27:24 PM 37.5397 -83.0322 229° Southwest 127 146 8,100  Level Indianapolis Center
Tue 06:28:26 PM 37.5181 -83.0675 232° Southwest 128 147 8,100 -48 Level Indianapolis Center
Tue 06:29:28 PM 37.4958 -83.1025 231° Southwest 128 147 8,000 -48 Descending Indianapolis Center
Tue 06:30:30 PM 37.4683 -83.1411 228° Southwest 128 147 8,000 48 Level Indianapolis Center
Tue 06:31:32 PM 37.4464 -83.1767 232° Southwest 128 147 8,100 48 Climbing Indianapolis Center
Tue 06:32:34 PM 37.4272 -83.2136 237° Southwest 126 145 8,100 -48 Level Indianapolis Center
Tue 06:33:36 PM 37.4061 -83.2497 234° Southwest 128 147 8,000 -48 Descending Indianapolis Center
Tue 06:34:38 PM 37.3822 -83.2825 227° Southwest 128 147 8,000  Level Indianapolis Center
Tue 06:35:39 PM 37.3631 -83.3289 243° Southwest 127 146 8,000  Level Indianapolis Center
Tue 06:36:41 PM 37.3467 -83.3681 242° Southwest 128 147 8,000  Level Indianapolis Center
Tue 06:37:43 PM 37.3297 -83.4069 241° Southwest 127 146 8,000 -48 Level Indianapolis Center
Tue 06:38:45 PM 37.3044 -83.4369 223° Southwest 128 147 7,900 -48 Descending Indianapolis Center
Tue 06:39:47 PM 37.2964 -83.4797 257° West 126 145 7,900 48 Level Indianapolis Center
Tue 06:40:49 PM 37.2839 -83.5200 249° West 125 144 8,000 48 Climbing Indianapolis Center
Tue 06:41:51 PM 37.2650 -83.5656 242° Southwest 125 144 8,000 48 Level Indianapolis Center
Tue 06:42:53 PM 37.2492 -83.6053 243° Southwest 126 145 8,100  Climbing Indianapolis Center
Tue 06:43:55 PM 37.2317 -83.6442 241° Southwest 127 146 8,000 -48 Descending Indianapolis Center
Tue 06:44:57 PM 37.2161 -83.6831 243° Southwest 126 145 8,000  Level Indianapolis Center
Tue 06:45:59 PM 37.1997 -83.7217 242° Southwest 125 144 8,000 48 Level Indianapolis Center
Tue 06:47:01 PM 37.1808 -83.7672 243° Southwest 126 145 8,100 48 Climbing Indianapolis Center
Tue 06:48:03 PM 37.1647 -83.8069 243° Southwest 127 146 8,100 49 Level Indianapolis Center
Tue 06:49:04 PM 37.1478 -83.8464 242° Southwest 129 148 8,200 49 Climbing Indianapolis Center
Tue 06:50:06 PM 37.1311 -83.8847 241° Southwest 126 145 8,200 -48 Level Indianapolis Center
Tue 06:51:09 PM 37.1147 -83.9253 243° Southwest 129 148 8,100  Descending Indianapolis Center
Tue 06:52:10 PM 37.0978 -83.9644 242° Southwest 129 148 8,200  Climbing Indianapolis Center
Tue 06:53:12 PM 37.0781 -84.0117 242° Southwest 130 150 8,100 -48 Descending Indianapolis Center
Tue 06:54:14 PM 37.0622 -84.0514 243° Southwest 128 147 8,100  Level Indianapolis Center
Tue 06:55:16 PM 37.0447 -84.0914 241° Southwest 129 148 8,100  Level Indianapolis Center
Tue 06:56:17 PM 37.0283 -84.1303 242° Southwest 128 147 8,100  Level Indianapolis Center
Tue 06:57:19 PM 37.0106 -84.1711 241° Southwest 131 151 8,100  Level Indianapolis Center
Tue 06:58:21 PM 36.9936 -84.2100 241° Southwest 128 147 8,100  Level Indianapolis Center
Tue 06:59:23 PM 36.9747 -84.2556 243° Southwest 127 146 8,100  Level Indianapolis Center
Tue 07:00:25 PM 36.9575 -84.2956 242° Southwest 129 148 8,100 -48 Level Indianapolis Center
Tue 07:01:27 PM 36.9403 -84.3367 242° Southwest 132 152 8,000 -49 Descending Indianapolis Center
Tue 07:02:28 PM 36.9242 -84.3767 243° Southwest 131 151 8,000 49 Level Indianapolis Center
Tue 07:03:30 PM 36.9069 -84.4172 242° Southwest 132 152 8,100 48 Climbing Indianapolis Center
Tue 07:04:32 PM 36.8894 -84.4569 241° Southwest 131 151 8,100  Level Indianapolis Center
Tue 07:05:34 PM 36.8686 -84.5042 241° Southwest 132 152 8,100  Level Indianapolis Center
Tue 07:06:36 PM 36.8533 -84.5411 243° Southwest 130 150 8,100  Level Indianapolis Center
Tue 07:07:38 PM 36.8361 -84.5822 242° Southwest 132 152 8,100  Level Indianapolis Center
Tue 07:08:39 PM 36.8183 -84.6222 241° Southwest 132 152 8,100 -49 Level Indianapolis Center
Tue 07:09:41 PM 36.8017 -84.6617 242° Southwest 130 150 8,000 -48 Descending Indianapolis Center
Tue 07:10:43 PM 36.7811 -84.7094 242° Southwest 130 150 8,000  Level Indianapolis Center
Tue 07:11:45 PM 36.7650 -84.7489 243° Southwest 128 147 8,000 49 Level Indianapolis Center
Tue 07:12:46 PM 36.7478 -84.7881 241° Southwest 129 148 8,100 49 Climbing Indianapolis Center
Tue 07:13:48 PM 36.7294 -84.8267 239° Southwest 130 150 8,100 -48 Level Indianapolis Center
Tue 07:14:50 PM 36.7142 -84.8658 244° Southwest 127 146 8,000  Descending Indianapolis Center
Tue 07:15:52 PM 36.6969 -84.9044 241° Southwest 127 146 8,100 49 Climbing Indianapolis Center
Tue 07:16:53 PM 36.6772 -84.9497 242° Southwest 125 144 8,100  Level Indianapolis Center
Tue 07:17:55 PM 36.6606 -84.9875 241° Southwest 125 144 8,100  Level Indianapolis Center
Tue 07:18:57 PM 36.6444 -85.0250 242° Southwest 124 143 8,100  Level Indianapolis Center
Tue 07:19:58 PM 36.6294 -85.0619 243° Southwest 121 139 8,100 49 Level Indianapolis Center
Tue 07:21:00 PM 36.6125 -85.0992 240° Southwest 123 142 8,200  Climbing Indianapolis Center
Tue 07:22:02 PM 36.5967 -85.1364 242° Southwest 122 140 8,100  Descending Indianapolis Center
Tue 07:23:03 PM 36.5808 -85.1739 242° Southwest 123 142 8,200  Climbing Indianapolis Center
Tue 07:24:05 PM 36.5703 -85.2142 252° West 123 142 8,100 -48 Descending Indianapolis Center
Tue 07:25:07 PM 36.5547 -85.2622 248° West 124 143 8,100  Level Indianapolis Center
Tue 07:26:08 PM 36.5436 -85.3036 252° West 125 144 8,100  Level Indianapolis Center
Tue 07:27:10 PM 36.5317 -85.3442 250° West 124 143 8,100  Level Indianapolis Center
Tue 07:28:12 PM 36.5200 -85.3847 250° West 125 144 8,100  Level Indianapolis Center
Tue 07:29:13 PM 36.5081 -85.4258 250° West 126 145 8,100  Level Indianapolis Center
Tue 07:30:15 PM 36.4972 -85.4669 252° West 126 145 8,100  Level Indianapolis Center
Tue 07:31:17 PM 36.4850 -85.5075 249° West 126 145 8,100  Level Indianapolis Center
Tue 07:32:18 PM 36.4700 -85.5575 250° West 127 146 8,100 -98 Level Indianapolis Center
Tue 07:33:20 PM 36.4578 -85.5989 250° West 128 147 7,900 -293 Descending Indianapolis Center
Tue 07:34:21 PM 36.4450 -85.6436 250° West 136 157 7,500 -390 Descending Indianapolis Center
Tue 07:35:23 PM 36.4322 -85.6867 250° West 134 154 7,100 -390 Descending Indianapolis Center
Tue 07:36:24 PM 36.4189 -85.7308 249° West 137 158 6,700 -390 Descending Indianapolis Center
Tue 07:37:26 PM 36.4058 -85.7764 250° West 139 160 6,300 -293 Descending Indianapolis Center
Tue 07:38:27 PM 36.3933 -85.8192 250° West 135 155 6,100 -146 Descending Indianapolis Center
Tue 07:39:29 PM 36.3794 -85.8639 249° West 134 154 6,000 -92 Descending Indianapolis Center
Tue 07:40:38 PM 36.3667 -85.9164 253° West 133 153 5,900 -87 Descending Memphis Center

Login

Don't have an account? Register now (free) for customized features, flight alerts, and more!